Time;durP1;ratioP1;P1;durP2;ratioP2;P2;SDS_P1;SDS_P2;PMS_P1;PMS_P2;Temp;Humidity;BMP_temperature;BMP_pressure;BME280_temperature;BME280_humidity;BME280_pressure;Samples;Min_cycle;Max_cycle;Signal;HPM_P1;HPM_P2
2021/09/02 00:00:26;;;;;;;1.70;0.63;;;;;;;19.87;57.35;102268.94;5014548;28;20064;-62
2021/09/02 00:02:51;;;;;;;2.72;1.00;;;;;;;19.82;57.50;102266.66;5013829;28;20096;-63
2021/09/02 00:05:16;;;;;;;2.85;0.60;;;;;;;19.81;57.35;102278.56;5014393;28;20442;-62
2021/09/02 00:07:41;;;;;;;2.78;0.77;;;;;;;19.80;57.52;102285.00;5014823;28;20478;-60
2021/09/02 00:10:07;;;;;;;1.95;0.55;;;;;;;19.79;57.97;102289.63;5014693;28;20519;-62
2021/09/02 00:12:33;;;;;;;4.10;1.00;;;;;;;19.76;57.90;102283.59;5014261;28;20380;-63
2021/09/02 00:15:42;;;;;;;1.13;0.63;;;;;;;19.77;57.11;102294.38;5015589;28;20465;-60
2021/09/02 00:18:08;;;;;;;1.17;0.55;;;;;;;19.75;57.99;102290.91;5015894;28;20048;-62
2021/09/02 00:20:33;;;;;;;4.35;0.80;;;;;;;19.78;57.60;102284.31;5014682;28;20506;-62
2021/09/02 00:22:59;;;;;;;3.47;0.73;;;;;;;19.74;57.71;102289.19;5014293;28;20030;-62
2021/09/02 00:25:25;;;;;;;2.20;1.02;;;;;;;19.75;57.45;102284.59;5014027;28;20033;-62
2021/09/02 00:27:50;;;;;;;2.38;0.80;;;;;;;19.75;57.38;102290.06;4996463;28;20049;-62
2021/09/02 00:30:16;;;;;;;1.88;0.73;;;;;;;19.72;57.38;102282.19;5014163;28;20032;-63
2021/09/02 00:32:41;;;;;;;2.38;0.70;;;;;;;19.73;57.35;102281.16;5014015;28;20033;-62
2021/09/02 00:35:07;;;;;;;1.27;0.50;;;;;;;19.74;57.54;102288.34;5014349;28;20085;-62
2021/09/02 00:37:33;;;;;;;0.75;0.50;;;;;;;19.70;57.97;102286.91;5013814;28;20077;-62
2021/09/02 00:39:58;;;;;;;1.25;0.45;;;;;;;19.68;57.94;102288.94;5015377;28;20033;-63
2021/09/02 00:42:24;;;;;;;2.45;0.98;;;;;;;19.66;57.26;102282.75;5033500;28;20025;-63
2021/09/02 00:44:56;;;;;;;2.22;0.60;;;;;;;19.68;58.88;102278.88;5034149;28;20470;-60
2021/09/02 00:47:22;;;;;;;0.85;0.52;;;;;;;19.69;57.93;102285.19;5035674;28;20033;-63
2021/09/02 00:49:48;;;;;;;1.38;0.75;;;;;;;19.67;57.39;102292.66;5033979;28;20057;-63
2021/09/02 00:52:15;;;;;;;3.00;1.00;;;;;;;19.66;57.69;102290.97;5033485;28;20029;-63
2021/09/02 00:54:46;;;;;;;1.23;0.50;;;;;;;19.67;57.13;102285.34;5015662;28;20029;-62
2021/09/02 00:57:12;;;;;;;2.42;0.73;;;;;;;19.64;58.08;102292.94;5033242;28;20439;-63
2021/09/02 00:59:39;;;;;;;1.60;0.75;;;;;;;19.64;56.87;102288.34;5027349;28;20140;-63
2021/09/02 01:02:05;;;;;;;2.67;0.70;;;;;;;19.62;57.56;102290.34;5033231;28;20037;-62
2021/09/02 01:04:31;;;;;;;3.28;0.80;;;;;;;19.62;57.48;102295.81;5033306;28;20029;-62
2021/09/02 01:06:57;;;;;;;1.60;0.60;;;;;;;19.64;57.24;102296.53;5015522;28;20025;-63
2021/09/02 01:09:25;;;;;;;1.88;0.68;;;;;;;19.61;57.21;102298.69;5033316;28;20036;-60
2021/09/02 01:11:50;;;;;;;1.38;0.65;;;;;;;19.59;58.06;102297.97;5034608;28;20066;-63
2021/09/02 01:14:17;;;;;;;2.55;0.50;;;;;;;19.58;57.56;102298.97;5033145;28;20104;-63
2021/09/02 01:16:45;;;;;;;1.77;0.80;;;;;;;19.61;56.97;102299.56;5033199;28;20060;-63
2021/09/02 01:19:10;;;;;;;1.95;0.60;;;;;;;19.59;57.53;102295.25;5015195;28;20075;-63
2021/09/02 01:21:36;;;;;;;3.30;0.70;;;;;;;19.53;58.11;102292.06;5033180;28;20030;-63
2021/09/02 01:24:01;;;;;;;0.93;0.57;;;;;;;19.55;58.47;102291.94;5033175;28;20040;-61
2021/09/02 01:26:27;;;;;;;2.97;0.63;;;;;;;19.57;57.49;102289.09;5033053;28;20024;-63
2021/09/02 01:28:53;;;;;;;0.90;0.50;;;;;;;19.56;58.39;102285.50;5033122;28;20064;-63
2021/09/02 01:31:19;;;;;;;2.67;1.20;;;;;;;19.57;57.32;102291.81;5032848;28;20049;-62
2021/09/02 01:33:46;;;;;;;1.98;0.80;;;;;;;19.52;58.00;102282.16;5032901;28;20112;-63
2021/09/02 01:36:12;;;;;;;3.20;0.95;;;;;;;19.53;57.21;102281.16;5033078;28;20391;-62
2021/09/02 01:38:37;;;;;;;2.78;1.00;;;;;;;19.51;57.64;102258.63;5033074;28;20052;-62
2021/09/02 01:41:18;;;;;;;3.05;0.93;;;;;;;19.51;57.31;102272.25;5033950;28;20029;-60
2021/09/02 01:43:43;;;;;;;2.05;0.43;;;;;;;19.49;58.64;102278.88;5034944;28;20429;-62
2021/09/02 01:46:09;;;;;;;1.48;0.63;;;;;;;19.51;58.12;102276.84;5032593;28;20049;-62
2021/09/02 01:48:36;;;;;;;2.70;1.00;;;;;;;19.51;60.05;102283.19;5033338;28;20028;-62
2021/09/02 01:51:02;;;;;;;0.75;0.50;;;;;;;19.50;57.69;102284.19;5032836;28;20363;-63
2021/09/02 01:53:28;;;;;;;1.63;0.68;;;;;;;19.49;58.83;102285.19;5032590;28;20033;-62
2021/09/02 01:55:54;;;;;;;2.42;0.90;;;;;;;19.46;58.07;102284.59;5032721;28;20021;-62
2021/09/02 01:58:19;;;;;;;1.58;0.63;;;;;;;19.48;58.10;102288.91;5032632;28;20056;-62
2021/09/02 02:00:45;;;;;;;1.38;0.82;;;;;;;19.48;58.37;102288.03;5032685;28;20520;-63
2021/09/02 02:03:10;;;;;;;0.80;0.60;;;;;;;19.48;58.43;102288.91;5024828;28;20045;-63
2021/09/02 02:05:36;;;;;;;3.42;0.60;;;;;;;19.47;58.92;102291.75;5012948;28;20026;-63
2021/09/02 02:08:02;;;;;;;2.33;0.90;;;;;;;19.47;59.02;102287.16;5012691;28;20022;-62
2021/09/02 02:10:59;;;;;;;1.63;0.80;;;;;;;19.46;58.31;102279.13;5014853;28;20030;-60
2021/09/02 02:13:25;;;;;;;1.83;0.47;;;;;;;19.44;58.44;102276.56;5013633;28;20411;-63
2021/09/02 02:15:50;;;;;;;1.13;0.65;;;;;;;19.45;57.57;102275.53;5012651;28;20034;-62
2021/09/02 02:18:15;;;;;;;3.60;0.80;;;;;;;19.44;58.92;102283.88;5023059;28;20033;-62
2021/09/02 02:20:40;;;;;;;1.65;0.60;;;;;;;19.43;58.12;102277.56;5032633;28;20079;-63
2021/09/02 02:23:06;;;;;;;2.97;0.70;;;;;;;19.45;57.65;102280.16;5032367;28;20455;-62
2021/09/02 02:25:31;;;;;;;1.50;0.65;;;;;;;19.46;57.83;102290.91;5033904;28;20068;-63
2021/09/02 02:27:57;;;;;;;2.20;0.50;;;;;;;19.42;59.40;102284.03;5035860;28;20029;-62
2021/09/02 02:30:24;;;;;;;1.75;0.50;;;;;;;19.43;57.99;102296.66;5036725;28;20116;-62
2021/09/02 02:32:51;;;;;;;1.35;0.65;;;;;;;19.45;57.90;102294.63;5036074;28;20030;-63
2021/09/02 02:35:18;;;;;;;1.92;0.63;;;;;;;19.39;57.82;102300.69;5035749;28;20017;-62
2021/09/02 02:38:27;;;;;;;1.70;0.57;;;;;;;19.41;58.88;102303.25;5036818;28;20351;-60
2021/09/02 02:40:52;;;;;;;2.15;1.05;;;;;;;19.41;58.83;102304.13;5037773;28;20045;-62
2021/09/02 02:43:17;;;;;;;0.88;0.50;;;;;;;19.43;57.85;102314.88;5036017;28;20049;-62
2021/09/02 02:45:43;;;;;;;1.92;0.47;;;;;;;19.39;58.60;102317.03;5035531;28;20025;-62
2021/09/02 02:48:08;;;;;;;3.28;0.80;;;;;;;19.40;57.87;102313.31;5035788;28;20033;-63
2021/09/02 02:50:33;;;;;;;1.42;0.60;;;;;;;19.38;58.53;102311.75;5035898;28;20067;-63
2021/09/02 02:52:59;;;;;;;1.35;0.55;;;;;;;19.40;58.88;102310.59;5035439;28;20450;-63
2021/09/02 02:55:25;;;;;;;1.60;0.68;;;;;;;19.40;58.58;102310.59;5035722;28;20067;-63
2021/09/02 02:57:51;;;;;;;1.88;0.82;;;;;;;19.37;59.39;102307.28;5035397;28;20025;-63
2021/09/02 03:00:17;;;;;;;1.40;0.50;;;;;;;19.37;59.26;102297.25;5034463;28;20104;-63
2021/09/02 03:02:42;;;;;;;0.75;0.32;;;;;;;19.37;58.70;102296.38;5034294;28;20113;-63
2021/09/02 03:05:08;;;;;;;0.65;0.40;;;;;;;19.39;58.76;102295.22;5034298;28;20033;-63
2021/09/02 03:07:34;;;;;;;1.45;0.60;;;;;;;19.39;58.99;102288.91;5034198;28;20052;-62
2021/09/02 03:10:00;;;;;;;2.00;0.90;;;;;;;19.37;59.28;102291.78;5034112;28;20148;-63
2021/09/02 03:12:26;;;;;;;0.82;0.50;;;;;;;19.36;58.66;102265.50;5034637;28;20060;-62
2021/09/02 03:14:52;;;;;;;3.30;0.57;;;;;;;19.32;59.49;102266.81;5033974;28;20068;-63
2021/09/02 03:17:17;;;;;;;1.15;0.52;;;;;;;19.30;59.90;102274.25;5033886;28;20496;-63
2021/09/02 03:19:42;;;;;;;1.33;0.50;;;;;;;19.30;58.93;102268.78;5034176;28;20041;-63
2021/09/02 03:22:08;;;;;;;1.20;0.50;;;;;;;19.32;60.01;102265.97;5033829;28;20029;-63
2021/09/02 03:24:33;;;;;;;1.10;0.20;;;;;;;19.32;59.28;102266.81;5034267;28;20028;-62
2021/09/02 03:26:58;;;;;;;0.77;0.40;;;;;;;19.29;59.51;102261.63;5033794;28;20030;-62
2021/09/02 03:30:02;;;;;;;1.17;0.35;;;;;;;19.29;60.09;102255.31;5035957;28;20021;-60
2021/09/02 03:32:28;;;;;;;3.95;0.35;;;;;;;19.30;59.71;102252.44;4962375;28;20594;-62
2021/09/02 03:34:53;;;;;;;0.60;0.50;;;;;;;19.29;60.27;102256.16;4965418;28;20122;-62
2021/09/02 03:37:18;;;;;;;0.38;0.38;;;;;;;19.27;59.92;102252.72;4952582;28;20106;-63
2021/09/02 03:39:43;;;;;;;0.95;0.50;;;;;;;19.29;60.46;102248.00;4953600;28;20043;-63
2021/09/02 03:42:09;;;;;;;0.65;0.35;;;;;;;19.27;59.49;102246.41;4953758;29;20499;-63
2021/09/02 03:44:34;;;;;;;1.42;0.50;;;;;;;19.26;59.98;102256.47;4953175;29;20508;-62
2021/09/02 03:46:59;;;;;;;0.63;0.40;;;;;;;19.23;60.95;102256.75;4953369;29;20039;-62
2021/09/02 03:49:25;;;;;;;1.05;0.38;;;;;;;19.29;60.16;102256.16;4953785;29;20424;-63
2021/09/02 03:51:50;;;;;;;1.48;0.45;;;;;;;19.26;60.46;102251.00;4953437;29;20035;-63
2021/09/02 03:54:15;;;;;;;1.38;0.40;;;;;;;19.25;59.96;102249.28;4954125;29;20035;-62
2021/09/02 03:56:41;;;;;;;1.55;0.50;;;;;;;19.26;60.70;102256.47;4953745;29;20027;-62
2021/09/02 03:59:06;;;;;;;1.15;0.40;;;;;;;19.27;60.71;102263.63;4918345;29;1029329;-62
2021/09/02 04:01:31;;;;;;;1.30;0.45;;;;;;;19.39;60.88;102261.63;4954184;29;20535;-62
2021/09/02 04:03:57;;;;;;;1.70;0.28;;;;;;;19.99;58.99;102260.44;4953981;29;20058;-63
2021/09/02 04:06:22;;;;;;;0.60;0.20;;;;;;;20.27;59.06;102257.72;4983258;28;20085;-62
2021/09/02 04:08:48;;;;;;;0.40;0.20;;;;;;;20.46;58.48;102246.75;5015056;28;20053;-62
2021/09/02 04:11:13;;;;;;;1.38;0.63;;;;;;;20.61;58.39;102247.97;5014368;28;20073;-63
2021/09/02 04:13:39;;;;;;;0.57;0.32;;;;;;;20.73;58.75;102257.69;5014572;28;20531;-62
2021/09/02 04:16:05;;;;;;;0.60;0.22;;;;;;;20.90;58.19;102249.66;5014328;28;20145;-62
2021/09/02 04:18:43;;;;;;;0.40;0.30;;;;;;;21.00;58.30;102262.25;5015553;28;20395;-60
2021/09/02 04:21:21;;;;;;;0.85;0.38;;;;;;;21.04;58.65;102257.34;5017238;28;20021;-62
2021/09/02 04:23:55;;;;;;;1.08;0.25;;;;;;;21.10;59.52;102251.22;5014673;28;20054;-61
2021/09/02 04:26:20;;;;;;;0.35;0.25;;;;;;;21.17;59.07;102246.00;5013990;28;20040;-63
2021/09/02 04:28:46;;;;;;;0.60;0.32;;;;;;;21.21;59.37;102253.75;4996557;28;20117;-62
2021/09/02 04:31:11;;;;;;;1.20;0.35;;;;;;;21.22;59.36;102249.13;5013842;28;20025;-63
2021/09/02 04:33:36;;;;;;;1.40;0.30;;;;;;;21.27;59.77;102244.94;4996962;28;20026;-62
2021/09/02 04:36:02;;;;;;;1.30;0.50;;;;;;;21.31;59.61;102242.72;5013521;28;20053;-63
2021/09/02 04:38:27;;;;;;;0.82;0.65;;;;;;;21.34;60.29;102247.06;5014426;28;20022;-61
2021/09/02 04:40:52;;;;;;;0.70;0.30;;;;;;;21.36;60.54;102245.03;5022724;28;20697;-63
2021/09/02 04:43:23;;;;;;;0.85;0.30;;;;;;;21.35;59.98;102248.78;5036455;28;20018;-62
2021/09/02 04:45:48;;;;;;;1.45;0.45;;;;;;;21.40;59.91;102249.16;5033175;28;20063;-63
2021/09/02 04:48:21;;;;;;;0.68;0.20;;;;;;;21.42;60.93;102249.84;5033292;28;20100;-62
2021/09/02 04:50:48;;;;;;;1.33;0.68;;;;;;;21.42;60.94;102249.84;5033586;28;20025;-62
2021/09/02 04:53:15;;;;;;;0.55;0.22;;;;;;;21.48;60.69;102243.72;5033480;28;20065;-62
2021/09/02 04:55:40;;;;;;;2.22;0.30;;;;;;;21.49;60.79;102246.31;5033739;28;20539;-62
2021/09/02 04:58:07;;;;;;;0.40;0.30;;;;;;;21.55;61.10;102253.03;5033050;28;20132;-63
2021/09/02 05:00:34;;;;;;;0.50;0.30;;;;;;;21.54;61.22;102254.06;5033416;28;20029;-62
2021/09/02 05:02:59;;;;;;;1.08;0.63;;;;;;;21.57;61.38;102248.25;5033115;28;20029;-62
2021/09/02 05:05:25;;;;;;;0.28;0.20;;;;;;;21.57;61.10;102248.25;5032957;28;20036;-63
2021/09/02 05:07:50;;;;;;;1.30;0.43;;;;;;;21.59;61.80;102247.09;5033059;28;20090;-63
2021/09/02 05:10:45;;;;;;;2.67;0.43;;;;;;;21.57;61.62;102242.78;5035142;28;20029;-60
2021/09/02 05:13:10;;;;;;;1.85;0.85;;;;;;;21.57;61.50;102253.75;4952889;29;20039;-63
2021/09/02 05:15:35;;;;;;;2.67;0.63;;;;;;;21.62;62.51;102257.72;4952993;29;20027;-63
2021/09/02 05:18:01;;;;;;;1.00;0.40;;;;;;;21.62;62.08;102251.38;4952674;29;20043;-63
2021/09/02 05:20:26;;;;;;;1.40;0.50;;;;;;;21.64;62.94;102254.81;4953160;29;20388;-62
2021/09/02 05:22:51;;;;;;;0.77;0.20;;;;;;;21.66;62.42;102246.44;4952809;29;20034;-63
2021/09/02 05:25:17;;;;;;;1.75;0.30;;;;;;;21.68;62.66;102250.75;4952693;29;20133;-61
2021/09/02 05:27:43;;;;;;;0.75;0.20;;;;;;;21.65;62.54;102242.84;4953007;29;20098;-63
2021/09/02 05:30:11;;;;;;;0.88;0.35;;;;;;;21.64;62.56;102232.91;4952752;29;20540;-62
2021/09/02 05:32:37;;;;;;;1.20;0.52;;;;;;;21.61;61.97;102234.09;4952967;29;20051;-63
2021/09/02 05:38:23;;;;;;;1.67;0.40;;;;;;;21.58;62.45;102234.41;4955758;29;20062;-62
2021/09/02 05:40:49;;;;;;;1.90;0.60;;;;;;;21.59;61.62;102241.59;4952320;29;20544;-63
2021/09/02 05:43:14;;;;;;;2.22;0.47;;;;;;;21.55;61.45;102250.31;4953336;29;20047;-62
2021/09/02 05:45:39;;;;;;;0.82;0.22;;;;;;;21.57;62.25;102249.13;4952511;29;20117;-63
2021/09/02 05:48:05;;;;;;;1.77;0.40;;;;;;;21.57;61.37;102253.75;4952433;29;20594;-62
2021/09/02 05:50:30;;;;;;;1.25;0.50;;;;;;;21.60;61.89;102253.41;5006404;28;20467;-63
2021/09/02 05:52:56;;;;;;;0.45;0.30;;;;;;;21.53;62.09;102255.94;5012718;28;20021;-63
2021/09/02 05:55:21;;;;;;;2.75;0.65;;;;;;;21.53;61.78;102257.81;5013000;28;20025;-63
2021/09/02 05:57:47;;;;;;;0.80;0.40;;;;;;;21.51;61.95;102254.38;5012603;28;20026;-63
2021/09/02 06:00:13;;;;;;;0.90;0.35;;;;;;;21.59;62.56;102247.09;5014876;28;20064;-62
2021/09/02 06:02:39;;;;;;;1.23;0.35;;;;;;;21.59;62.63;102248.97;5016672;28;20025;-63
2021/09/02 06:05:06;;;;;;;1.08;0.20;;;;;;;21.58;61.86;102247.25;5016703;28;20076;-63
2021/09/02 06:07:32;;;;;;;2.58;0.30;;;;;;;21.57;61.39;102248.25;5016652;28;20033;-63
2021/09/02 06:09:57;;;;;;;0.90;0.50;;;;;;;21.58;61.81;102249.97;5016652;28;20116;-63
2021/09/02 06:12:22;;;;;;;1.63;0.40;;;;;;;21.52;62.22;102245.16;5016893;28;20026;-63
2021/09/02 06:14:47;;;;;;;1.92;0.60;;;;;;;21.52;63.55;102246.00;5016918;28;20474;-61
2021/09/02 06:17:13;;;;;;;3.05;0.80;;;;;;;21.58;62.30;102244.50;5016543;28;20026;-63
2021/09/02 06:19:38;;;;;;;1.45;0.60;;;;;;;21.64;62.29;102238.38;5025612;28;20072;-63
2021/09/02 06:22:04;;;;;;;1.15;0.30;;;;;;;21.61;62.95;102235.97;5035988;28;20049;-61
2021/09/02 06:24:29;;;;;;;1.35;0.45;;;;;;;21.62;61.92;102240.44;5036849;28;20034;-63
2021/09/02 06:26:54;;;;;;;1.38;0.50;;;;;;;21.67;62.45;102249.03;5035930;28;20151;-63
2021/09/02 06:29:20;;;;;;;0.73;0.40;;;;;;;21.64;62.02;102246.59;5036110;28;20403;-63
2021/09/02 06:31:45;;;;;;;0.30;0.20;;;;;;;21.58;62.38;102252.72;5035841;28;20386;-63
2021/09/02 06:34:11;;;;;;;0.90;0.40;;;;;;;21.65;62.39;102252.94;5036031;28;20044;-63
2021/09/02 06:36:36;;;;;;;1.48;0.63;;;;;;;21.63;62.94;102248.47;5036027;28;20561;-63
2021/09/02 06:39:02;;;;;;;0.77;0.40;;;;;;;21.68;62.23;102245.28;5035465;28;20044;-63
2021/09/02 06:41:27;;;;;;;2.10;0.40;;;;;;;21.64;62.40;102241.13;5033265;28;20033;-63
2021/09/02 06:43:52;;;;;;;1.65;0.52;;;;;;;21.62;62.09;102233.06;5035633;28;20112;-63
2021/09/02 06:46:18;;;;;;;1.33;0.52;;;;;;;21.63;62.68;102231.19;5035702;28;20467;-63
2021/09/02 06:48:43;;;;;;;1.00;0.43;;;;;;;21.64;62.01;102238.38;5035942;28;20033;-62
2021/09/02 06:51:08;;;;;;;2.28;0.73;;;;;;;21.66;64.45;102233.59;5036897;28;20022;-61
2021/09/02 06:54:23;;;;;;;0.50;0.30;;;;;;;21.68;63.63;102238.94;5038217;28;20037;-60
2021/09/02 06:56:48;;;;;;;1.00;0.40;;;;;;;21.63;62.59;102237.53;4943028;28;20039;-63
2021/09/02 06:59:13;;;;;;;1.42;0.50;;;;;;;21.60;62.83;102242.47;4954547;28;20059;-63
2021/09/02 07:01:39;;;;;;;0.70;0.40;;;;;;;21.61;62.48;102244.19;4952887;29;20039;-63
2021/09/02 07:04:04;;;;;;;2.28;0.68;;;;;;;21.71;62.67;102241.38;4946888;28;20022;-63
2021/09/02 07:06:29;;;;;;;2.17;0.60;;;;;;;21.67;63.56;102231.72;4969966;28;20266;-62
2021/09/02 07:08:55;;;;;;;2.45;0.45;;;;;;;21.68;63.27;102238.94;4954636;28;20028;-63
2021/09/02 07:11:20;;;;;;;0.63;0.32;;;;;;;21.66;63.52;102241.81;4954338;28;20122;-63
2021/09/02 07:13:46;;;;;;;1.17;0.20;;;;;;;21.69;63.40;102241.53;4962807;28;20043;-62
2021/09/02 07:16:11;;;;;;;0.82;0.32;;;;;;;21.70;63.07;102237.78;4955026;29;20117;-62
2021/09/02 07:18:37;;;;;;;2.20;0.60;;;;;;;21.70;63.18;102229.56;4956487;29;20388;-63
2021/09/02 07:21:03;;;;;;;1.00;0.40;;;;;;;21.69;62.84;102221.50;4954707;29;20067;-63
2021/09/02 07:23:28;;;;;;;0.75;0.30;;;;;;;21.69;63.25;102219.63;4955098;29;20551;-63
2021/09/02 07:25:54;;;;;;;0.80;0.30;;;;;;;21.68;63.05;102217.91;4954325;29;20043;-63
2021/09/02 07:28:19;;;;;;;1.60;0.55;;;;;;;21.69;63.69;102219.63;4954456;29;20023;-64
2021/09/02 07:30:45;;;;;;;1.50;0.57;;;;;;;21.66;63.91;102217.19;4954902;29;20062;-62
2021/09/02 07:33:11;;;;;;;1.38;0.30;;;;;;;21.71;63.20;102211.25;4990210;28;20378;-63
2021/09/02 07:35:37;;;;;;;1.23;0.35;;;;;;;21.71;63.43;102214.84;5015177;28;20089;-63
2021/09/02 07:38:02;;;;;;;0.60;0.30;;;;;;;21.72;63.47;102213.84;5029118;28;20533;-63
2021/09/02 07:40:27;;;;;;;1.85;0.30;;;;;;;21.68;62.97;102206.09;5033353;28;20025;-62
2021/09/02 07:43:39;;;;;;;2.20;0.50;;;;;;;21.72;62.85;102211.09;5036364;28;20074;-60
2021/09/02 07:46:04;;;;;;;0.82;0.40;;;;;;;21.70;62.65;102210.41;4935081;29;20054;-63
2021/09/02 07:48:29;;;;;;;1.70;0.50;;;;;;;21.72;63.41;102208.34;4919320;29;20049;-63
2021/09/02 07:50:55;;;;;;;1.15;0.45;;;;;;;21.73;63.51;102199.13;4934948;29;20091;-63
2021/09/02 07:53:21;;;;;;;1.75;0.50;;;;;;;21.75;63.10;102199.81;4935169;29;20550;-62
2021/09/02 07:55:47;;;;;;;3.08;0.73;;;;;;;21.69;63.23;102196.88;4935456;29;20026;-63
2021/09/02 07:58:12;;;;;;;1.67;0.50;;;;;;;21.73;63.29;102193.66;4930294;29;20037;-63
2021/09/02 08:00:37;;;;;;;1.02;0.30;;;;;;;21.73;63.40;102187.31;4933463;29;20031;-63
2021/09/02 08:03:03;;;;;;;0.70;0.30;;;;;;;21.69;63.01;102184.03;4934735;29;20031;-62
2021/09/02 08:05:29;;;;;;;2.67;0.60;;;;;;;21.70;63.44;102188.50;4934704;29;20153;-63
2021/09/02 08:07:54;;;;;;;2.20;0.50;;;;;;;21.71;63.46;102182.00;4923643;29;20474;-62
2021/09/02 08:10:23;;;;;;;1.02;0.40;;;;;;;21.75;63.51;102190.75;4916084;29;20086;-63
2021/09/02 08:12:49;;;;;;;1.40;0.50;;;;;;;21.80;63.77;102183.75;4924655;29;20031;-62
2021/09/02 08:15:16;;;;;;;1.45;0.32;;;;;;;21.78;63.32;102184.94;4928780;29;20167;-62
2021/09/02 08:17:43;;;;;;;0.80;0.40;;;;;;;21.72;63.87;102186.47;4922274;29;20111;-63
2021/09/02 08:20:09;;;;;;;1.13;0.43;;;;;;;21.73;64.17;102196.38;4924096;29;20245;-63
2021/09/02 08:22:35;;;;;;;0.60;0.30;;;;;;;21.75;63.49;102183.38;4953229;28;20038;-62
2021/09/02 08:25:01;;;;;;;0.60;0.32;;;;;;;21.73;63.86;102188.16;5014353;28;20591;-63
2021/09/02 08:27:26;;;;;;;1.05;0.40;;;;;;;21.71;63.98;102190.22;5013897;28;20026;-64
2021/09/02 08:29:51;;;;;;;1.25;0.50;;;;;;;21.75;63.21;102191.59;5014129;28;20371;-63
2021/09/02 08:32:17;;;;;;;1.13;0.45;;;;;;;21.74;63.87;102184.41;5025957;28;20107;-62
2021/09/02 08:34:42;;;;;;;1.08;0.60;;;;;;;21.76;63.68;102181.50;5033396;28;20167;-63
2021/09/02 08:37:07;;;;;;;1.85;0.40;;;;;;;21.73;63.15;102181.84;5021922;28;20037;-62
2021/09/02 08:39:33;;;;;;;1.75;0.40;;;;;;;21.79;63.48;102176.56;5033782;28;20025;-64
2021/09/02 08:41:59;;;;;;;1.60;0.55;;;;;;;21.77;64.37;102172.28;5020958;28;20032;-63
2021/09/02 08:44:25;;;;;;;1.70;0.40;;;;;;;21.77;62.89;102178.59;5029528;28;20537;-63
2021/09/02 08:46:50;;;;;;;2.35;0.60;;;;;;;21.77;63.27;102167.66;5024251;28;20045;-63
2021/09/02 08:49:21;;;;;;;0.75;0.52;;;;;;;21.77;63.85;102158.59;5032677;28;20029;-63
2021/09/02 08:51:49;;;;;;;1.90;0.35;;;;;;;21.72;64.49;102159.09;5033349;28;20037;-61
2021/09/02 08:54:14;;;;;;;1.65;0.55;;;;;;;21.73;63.92;102160.78;5033216;28;20099;-63
2021/09/02 08:56:40;;;;;;;2.03;0.52;;;;;;;21.74;64.76;102151.56;5032262;28;20053;-64
2021/09/02 08:59:05;;;;;;;2.40;0.45;;;;;;;21.76;63.95;102156.88;5033152;28;20072;-63
2021/09/02 09:01:31;;;;;;;0.70;0.32;;;;;;;21.78;63.58;102152.94;5033387;28;20466;-63
2021/09/02 09:03:57;;;;;;;2.30;0.60;;;;;;;21.77;63.31;102156.72;5033246;28;20029;-63
2021/09/02 09:06:31;;;;;;;0.55;0.30;;;;;;;21.79;62.88;102149.19;5034699;28;20025;-63
2021/09/02 09:08:57;;;;;;;0.40;0.30;;;;;;;21.79;63.33;102138.25;5033114;28;20053;-64
2021/09/02 09:11:30;;;;;;;2.05;0.50;;;;;;;21.78;63.99;102139.25;5033228;28;20048;-63
2021/09/02 09:14:11;;;;;;;2.17;0.43;;;;;;;21.85;63.91;102125.78;5032877;28;20025;-64
2021/09/02 09:16:45;;;;;;;1.42;0.40;;;;;;;21.73;64.37;102122.47;5032907;28;20486;-63
2021/09/02 09:19:54;;;;;;;1.48;0.50;;;;;;;21.77;63.71;102118.38;5033242;28;20393;-64
2021/09/02 09:22:24;;;;;;;1.52;0.60;;;;;;;21.77;63.44;102129.34;5032973;28;20018;-64
2021/09/02 09:24:57;;;;;;;2.25;0.82;;;;;;;21.77;63.68;102115.66;5033364;28;20029;-63
2021/09/02 09:27:38;;;;;;;1.25;0.47;;;;;;;21.80;63.91;102109.84;5032945;28;20017;-64
2021/09/02 09:30:05;;;;;;;1.05;0.30;;;;;;;21.76;63.07;102115.81;5033593;28;20029;-63
2021/09/02 09:32:40;;;;;;;1.50;0.70;;;;;;;21.73;65.15;102122.47;5033067;28;20029;-64
2021/09/02 09:35:08;;;;;;;0.52;0.20;;;;;;;21.80;63.88;102112.56;5031725;28;20068;-64
2021/09/02 09:37:33;;;;;;;0.50;0.47;;;;;;;21.77;63.19;102104.69;5032773;28;20029;-61
2021/09/02 09:40:09;;;;;;;1.83;0.80;;;;;;;21.79;63.89;102102.66;5031698;28;20029;-64
2021/09/02 09:42:34;;;;;;;1.98;0.50;;;;;;;21.81;63.30;102094.28;5013382;28;20072;-64
2021/09/02 09:45:00;;;;;;;0.95;0.30;;;;;;;21.79;63.41;102094.44;5026387;28;20400;-64
2021/09/02 09:47:26;;;;;;;1.27;0.60;;;;;;;21.83;62.82;102090.34;5032517;28;20398;-64
2021/09/02 09:50:09;;;;;;;0.63;0.40;;;;;;;21.79;63.37;102088.97;5032635;28;20133;-63
2021/09/02 09:52:41;;;;;;;2.47;0.30;;;;;;;21.83;63.83;102073.06;5032756;28;20474;-64
2021/09/02 09:55:09;;;;;;;0.60;0.30;;;;;;;21.74;63.31;102085.88;5031996;28;20053;-63
2021/09/02 09:57:36;;;;;;;0.95;0.30;;;;;;;21.77;64.24;102073.72;5034209;28;20079;-63
2021/09/02 10:00:08;;;;;;;2.53;0.60;;;;;;;21.80;63.51;102074.25;5031559;28;20609;-63
2021/09/02 10:02:38;;;;;;;3.50;0.82;;;;;;;21.78;63.84;102073.56;5031905;28;20026;-63
2021/09/02 10:05:06;;;;;;;1.20;0.45;;;;;;;21.77;63.66;102077.31;5031958;28;20029;-63
2021/09/02 10:07:33;;;;;;;2.00;0.60;;;;;;;21.78;64.43;102064.50;5031086;28;20371;-63
2021/09/02 10:09:59;;;;;;;1.00;0.32;;;;;;;21.76;63.21;102067.41;5031821;28;20049;-63
2021/09/02 10:12:25;;;;;;;0.77;0.30;;;;;;;21.77;63.53;102066.38;5032008;28;20064;-63
2021/09/02 10:14:51;;;;;;;0.98;0.28;;;;;;;21.80;64.18;102063.31;5014913;28;20026;-63
2021/09/02 10:17:16;;;;;;;2.17;0.47;;;;;;;21.76;63.43;102061.94;5032424;28;20044;-63
2021/09/02 10:19:43;;;;;;;1.10;0.43;;;;;;;21.80;64.13;102052.34;5032658;28;20359;-64
2021/09/02 10:22:11;;;;;;;2.53;0.73;;;;;;;21.79;63.67;102056.13;5032462;28;20033;-63
2021/09/02 10:24:40;;;;;;;1.67;0.63;;;;;;;21.80;63.99;102041.41;5032881;28;20021;-63
2021/09/02 10:27:17;;;;;;;1.35;0.60;;;;;;;21.75;63.96;102049.25;5032329;28;20021;-63
2021/09/02 10:29:44;;;;;;;0.60;0.50;;;;;;;21.77;63.67;102041.75;5032397;28;20028;-63
2021/09/02 10:32:22;;;;;;;0.57;0.32;;;;;;;21.77;63.37;102047.22;5032013;28;20029;-63
2021/09/02 10:34:47;;;;;;;1.42;0.35;;;;;;;21.77;64.41;102052.69;5014802;28;20032;-64
2021/09/02 10:37:33;;;;;;;1.77;0.40;;;;;;;21.79;63.78;102044.31;5032277;28;20018;-64
2021/09/02 10:39:58;;;;;;;0.98;0.40;;;;;;;21.80;63.81;102046.88;4951507;29;20043;-63
2021/09/02 10:42:43;;;;;;;1.02;0.32;;;;;;;21.76;63.77;102042.75;4952352;29;20031;-62
2021/09/02 10:45:30;;;;;;;2.03;0.30;;;;;;;21.79;63.87;102045.16;4951917;29;20326;-64
2021/09/02 10:48:05;;;;;;;1.13;0.55;;;;;;;21.80;64.02;102040.53;4955337;29;20078;-63
2021/09/02 10:50:42;;;;;;;1.52;0.68;;;;;;;21.81;63.29;102037.63;4957419;29;20042;-63
2021/09/02 10:53:12;;;;;;;0.98;0.35;;;;;;;21.83;63.59;102030.13;4955105;29;20031;-62
2021/09/02 10:55:40;;;;;;;2.30;0.50;;;;;;;21.81;63.41;102031.31;4955251;29;20034;-63
2021/09/02 10:58:08;;;;;;;2.63;0.75;;;;;;;21.82;63.76;102022.94;4955000;29;20063;-63
2021/09/02 11:00:38;;;;;;;1.42;0.40;;;;;;;21.82;63.46;102033.88;4955078;29;20028;-63
2021/09/02 11:03:13;;;;;;;1.63;0.50;;;;;;;21.77;63.10;102040.88;4955197;29;20122;-63
2021/09/02 11:05:42;;;;;;;0.73;0.35;;;;;;;21.76;63.33;102033.69;4955628;29;20143;-64
2021/09/02 11:08:08;;;;;;;0.80;0.38;;;;;;;21.79;64.05;102034.22;4954633;29;20062;-63
2021/09/02 11:10:34;;;;;;;2.05;0.55;;;;;;;21.79;63.08;102028.75;4954280;29;20043;-63
2021/09/02 11:13:05;;;;;;;3.97;0.75;;;;;;;21.80;64.45;102019.50;4954531;29;20384;-63
2021/09/02 11:15:31;;;;;;;2.35;0.70;;;;;;;21.70;64.17;102018.81;4954443;29;20027;-63
2021/09/02 11:18:02;;;;;;;1.52;0.55;;;;;;;21.68;63.53;102015.38;5019766;28;20041;-62
2021/09/02 11:20:30;;;;;;;1.15;0.40;;;;;;;21.82;63.90;101997.44;5026610;28;20041;-62
2021/09/02 11:23:07;;;;;;;0.82;0.40;;;;;;;21.78;63.71;102004.28;5031133;28;20026;-63
2021/09/02 11:25:43;;;;;;;0.65;0.30;;;;;;;21.73;64.01;101996.56;5035155;28;20021;-63
2021/09/02 11:28:08;;;;;;;1.58;0.50;;;;;;;21.78;64.02;101988.69;5028460;28;20108;-64
2021/09/02 11:30:34;;;;;;;2.58;0.43;;;;;;;21.81;63.17;101985.63;5028725;28;20104;-64